Time;durP1;ratioP1;P1;durP2;ratioP2;P2;SDS_P1;SDS_P2;PMS_P1;PMS_P2;Temp;Humidity;BMP_temperature;BMP_pressure;BME280_temperature;BME280_humidity;BME280_pressure;Samples;Min_cycle;Max_cycle;Signal;HPM_P1;HPM_P2
2022/03/07 00:02:36;;;;;;;582.56;528.04;;;;;;;17.79;40.31;101115.45;;;;-57
2022/03/07 00:05:36;;;;;;;590.66;535.90;;;;;;;17.77;40.31;101112.73;;;;-57
2022/03/07 00:08:36;;;;;;;585.02;530.50;;;;;;;17.76;40.34;101117.39;;;;-56
2022/03/07 00:11:36;;;;;;;582.34;527.93;;;;;;;17.73;40.38;101116.77;;;;-56
2022/03/07 00:14:36;;;;;;;581.07;526.53;;;;;;;17.71;40.40;101115.02;;;;-56
2022/03/07 00:17:36;;;;;;;578.97;524.56;;;;;;;17.70;40.30;101114.76;;;;-58
2022/03/07 00:20:36;;;;;;;580.41;526.07;;;;;;;17.68;40.47;101115.92;;;;-59
2022/03/07 00:23:36;;;;;;;582.23;527.86;;;;;;;17.66;40.39;101117.02;;;;-59
2022/03/07 00:26:36;;;;;;;582.13;527.61;;;;;;;17.64;40.29;101120.05;;;;-59
2022/03/07 00:29:36;;;;;;;576.47;522.25;;;;;;;17.62;40.38;101120.23;;;;-59
2022/03/07 00:32:36;;;;;;;572.59;518.53;;;;;;;17.62;40.31;101128.17;;;;-58
2022/03/07 00:35:36;;;;;;;575.49;521.42;;;;;;;17.60;40.34;101129.50;;;;-58
2022/03/07 00:38:36;;;;;;;575.85;521.79;;;;;;;17.59;40.37;101125.89;;;;-58
2022/03/07 00:41:36;;;;;;;577.70;523.59;;;;;;;17.57;40.26;101129.91;;;;-54
2022/03/07 00:44:36;;;;;;;577.79;523.65;;;;;;;17.56;40.41;101126.73;;;;-52
2022/03/07 00:47:36;;;;;;;572.65;518.81;;;;;;;17.54;40.28;101129.84;;;;-53
2022/03/07 00:50:42;;;;;;;573.15;519.17;;;;;;;17.53;40.33;101131.50;;;;-57
2022/03/07 00:53:36;;;;;;;569.48;515.72;;;;;;;17.51;40.33;101129.91;;;;-57
2022/03/07 00:56:36;;;;;;;571.71;517.83;;;;;;;17.50;40.31;101129.57;;;;-57
2022/03/07 00:59:36;;;;;;;570.95;517.13;;;;;;;17.48;40.33;101128.87;;;;-63
2022/03/07 01:02:38;;;;;;;572.60;518.69;;;;;;;17.46;40.35;101128.09;;;;-60
2022/03/07 01:05:36;;;;;;;570.91;517.05;;;;;;;17.44;40.36;101129.66;;;;-56
2022/03/07 01:08:36;;;;;;;571.68;517.69;;;;;;;17.43;40.43;101125.81;;;;-56
2022/03/07 01:11:36;;;;;;;568.15;514.48;;;;;;;17.41;40.35;101125.14;;;;-56
2022/03/07 01:14:36;;;;;;;572.75;518.88;;;;;;;17.39;40.44;101120.64;;;;-57
2022/03/07 01:17:36;;;;;;;567.72;514.01;;;;;;;17.38;40.35;101121.64;;;;-56
2022/03/07 01:20:36;;;;;;;571.41;517.43;;;;;;;17.37;40.42;101121.80;;;;-52
2022/03/07 01:23:36;;;;;;;569.80;515.85;;;;;;;17.36;40.39;101119.41;;;;-53
2022/03/07 01:26:37;;;;;;;563.27;509.73;;;;;;;17.34;40.40;101115.30;;;;-52
2022/03/07 01:29:36;;;;;;;565.03;511.33;;;;;;;17.33;40.35;101117.20;;;;-52
2022/03/07 01:32:36;;;;;;;565.45;511.67;;;;;;;17.31;40.39;101118.48;;;;-52
2022/03/07 01:35:36;;;;;;;561.53;507.89;;;;;;;17.29;40.40;101117.78;;;;-53
2022/03/07 01:38:36;;;;;;;562.87;509.24;;;;;;;17.28;40.38;101114.26;;;;-59
2022/03/07 01:41:36;;;;;;;563.15;509.45;;;;;;;17.27;40.34;101117.25;;;;-59
2022/03/07 01:44:36;;;;;;;563.15;509.44;;;;;;;17.26;40.46;101114.20;;;;-59
2022/03/07 01:47:36;;;;;;;563.72;510.06;;;;;;;17.25;40.32;101109.81;;;;-59
2022/03/07 01:50:36;;;;;;;560.27;506.78;;;;;;;17.25;40.33;101108.03;;;;-59
2022/03/07 01:53:36;;;;;;;563.39;509.65;;;;;;;17.23;40.43;101108.22;;;;-58
2022/03/07 01:56:36;;;;;;;563.05;509.23;;;;;;;17.22;40.35;101108.59;;;;-56
2022/03/07 01:59:37;;;;;;;557.43;504.06;;;;;;;17.20;40.37;101102.82;;;;-57
2022/03/07 02:02:36;;;;;;;561.76;508.22;;;;;;;17.20;40.36;101105.13;;;;-57
2022/03/07 02:05:36;;;;;;;559.35;505.86;;;;;;;17.18;40.34;101106.16;;;;-53
2022/03/07 02:08:36;;;;;;;562.23;508.53;;;;;;;17.17;40.42;101104.66;;;;-52
2022/03/07 02:11:36;;;;;;;561.65;507.90;;;;;;;17.15;40.26;101100.08;;;;-52
2022/03/07 02:14:36;;;;;;;556.71;503.19;;;;;;;17.15;40.37;101099.59;;;;-54
2022/03/07 02:17:36;;;;;;;555.50;502.15;;;;;;;17.14;40.34;101095.91;;;;-52
2022/03/07 02:20:36;;;;;;;553.40;500.11;;;;;;;17.13;40.38;101097.02;;;;-52
2022/03/07 02:23:36;;;;;;;555.93;502.47;;;;;;;17.11;40.32;101091.88;;;;-52
2022/03/07 02:26:36;;;;;;;556.67;503.27;;;;;;;17.10;40.34;101089.75;;;;-52
2022/03/07 02:29:36;;;;;;;557.01;503.67;;;;;;;17.09;40.38;101091.58;;;;-63
2022/03/07 02:32:36;;;;;;;555.64;502.27;;;;;;;17.09;40.29;101096.03;;;;-63
2022/03/07 02:35:36;;;;;;;552.21;499.07;;;;;;;17.07;40.29;101091.60;;;;-63
2022/03/07 02:38:36;;;;;;;555.77;502.43;;;;;;;17.06;40.31;101097.42;;;;-60
2022/03/07 02:41:36;;;;;;;553.92;500.61;;;;;;;17.05;40.23;101096.25;;;;-60
2022/03/07 02:44:36;;;;;;;555.48;502.10;;;;;;;17.03;40.31;101094.00;;;;-59
2022/03/07 02:47:36;;;;;;;551.23;498.19;;;;;;;17.03;40.42;101098.45;;;;-63
2022/03/07 02:50:36;;;;;;;553.77;500.68;;;;;;;17.01;40.40;101089.17;;;;-60
2022/03/07 02:53:36;;;;;;;553.30;500.19;;;;;;;17.01;40.30;101098.89;;;;-59
2022/03/07 02:56:37;;;;;;;549.70;496.56;;;;;;;17.00;40.39;101093.53;;;;-59
2022/03/07 02:59:36;;;;;;;553.21;500.01;;;;;;;16.98;40.48;101093.97;;;;-58
2022/03/07 03:02:36;;;;;;;554.14;501.05;;;;;;;16.97;40.45;101100.72;;;;-58
2022/03/07 03:05:36;;;;;;;552.11;499.23;;;;;;;16.96;40.40;101102.66;;;;-59
2022/03/07 03:08:36;;;;;;;554.83;501.99;;;;;;;16.95;40.48;101103.54;;;;-56
2022/03/07 03:11:36;;;;;;;556.95;503.99;;;;;;;16.94;40.38;101103.25;;;;-56
2022/03/07 03:14:36;;;;;;;552.07;499.28;;;;;;;16.93;40.45;101101.22;;;;-55
2022/03/07 03:17:36;;;;;;;557.63;504.46;;;;;;;16.93;40.46;101100.28;;;;-55
2022/03/07 03:20:36;;;;;;;551.57;499.31;;;;;;;16.93;40.42;101101.25;;;;-57
2022/03/07 03:23:36;;;;;;;552.57;500.07;;;;;;;16.92;40.37;101102.86;;;;-62
2022/03/07 03:26:36;;;;;;;550.80;498.45;;;;;;;16.91;40.31;101107.35;;;;-61
2022/03/07 03:29:36;;;;;;;553.25;500.85;;;;;;;16.89;40.45;101109.00;;;;-60
2022/03/07 03:32:36;;;;;;;558.83;506.13;;;;;;;16.89;40.49;101113.94;;;;-60
2022/03/07 03:35:36;;;;;;;552.93;500.37;;;;;;;16.87;40.48;101112.59;;;;-59
2022/03/07 03:38:36;;;;;;;546.54;495.05;;;;;;;16.87;40.42;101116.23;;;;-59
2022/03/07 03:41:36;;;;;;;554.07;502.09;;;;;;;16.85;40.39;101110.79;;;;-59
2022/03/07 03:44:36;;;;;;;548.75;496.87;;;;;;;16.85;40.39;101114.91;;;;-60
2022/03/07 03:47:36;;;;;;;545.93;494.51;;;;;;;16.84;40.37;101113.34;;;;-61
2022/03/07 03:50:36;;;;;;;550.80;498.71;;;;;;;16.83;40.40;101110.48;;;;-63
2022/03/07 03:53:36;;;;;;;551.50;499.57;;;;;;;16.83;40.33;101111.22;;;;-60
2022/03/07 03:56:36;;;;;;;552.69;501.49;;;;;;;16.81;40.41;101111.81;;;;-62
2022/03/07 03:59:36;;;;;;;550.07;498.41;;;;;;;16.82;40.37;101118.45;;;;-56
2022/03/07 04:02:36;;;;;;;552.65;501.18;;;;;;;16.81;40.35;101119.62;;;;-62
2022/03/07 04:05:36;;;;;;;552.33;500.17;;;;;;;16.80;40.31;101123.55;;;;-60
2022/03/07 04:08:37;;;;;;;544.97;493.77;;;;;;;16.79;40.31;101128.72;;;;-60
2022/03/07 04:11:36;;;;;;;549.40;497.95;;;;;;;16.78;40.39;101130.30;;;;-58
2022/03/07 04:14:36;;;;;;;544.87;493.16;;;;;;;16.77;40.40;101131.82;;;;-58
2022/03/07 04:17:36;;;;;;;545.73;493.70;;;;;;;16.76;40.31;101133.64;;;;-60
2022/03/07 04:20:36;;;;;;;545.92;493.59;;;;;;;16.75;40.47;101136.86;;;;-62
2022/03/07 04:23:36;;;;;;;549.07;497.08;;;;;;;16.74;40.33;101134.87;;;;-60
2022/03/07 04:26:36;;;;;;;537.85;487.05;;;;;;;16.74;40.34;101135.03;;;;-60
2022/03/07 04:29:36;;;;;;;539.37;487.73;;;;;;;16.73;40.29;101131.70;;;;-59
2022/03/07 04:32:38;;;;;;;541.27;490.05;;;;;;;16.72;40.36;101132.46;;;;-61
2022/03/07 04:35:36;;;;;;;539.25;487.67;;;;;;;16.71;40.38;101132.13;;;;-60
2022/03/07 04:38:36;;;;;;;541.56;489.62;;;;;;;16.71;40.22;101134.72;;;;-58
2022/03/07 04:41:36;;;;;;;539.49;487.53;;;;;;;16.69;40.30;101132.88;;;;-58
2022/03/07 04:44:36;;;;;;;538.19;485.96;;;;;;;16.69;40.25;101134.50;;;;-59
2022/03/07 04:47:36;;;;;;;535.86;483.58;;;;;;;16.67;40.35;101136.70;;;;-53
2022/03/07 04:50:36;;;;;;;537.69;485.53;;;;;;;16.66;40.29;101133.38;;;;-52
2022/03/07 04:53:36;;;;;;;529.41;477.63;;;;;;;16.66;40.29;101140.46;;;;-54
2022/03/07 04:56:37;;;;;;;526.75;474.99;;;;;;;16.65;40.28;101143.61;;;;-59
2022/03/07 04:59:36;;;;;;;529.69;477.51;;;;;;;16.65;40.23;101144.25;;;;-59
2022/03/07 05:02:36;;;;;;;527.87;475.81;;;;;;;16.64;40.24;101148.89;;;;-59
2022/03/07 05:05:36;;;;;;;532.27;479.93;;;;;;;16.64;40.30;101151.65;;;;-53
2022/03/07 05:08:37;;;;;;;528.73;476.60;;;;;;;16.62;40.17;101151.79;;;;-52
2022/03/07 05:11:36;;;;;;;529.12;476.93;;;;;;;16.61;40.27;101153.93;;;;-61
2022/03/07 05:14:36;;;;;;;531.30;478.93;;;;;;;16.61;40.25;101161.61;;;;-61
2022/03/07 05:17:36;;;;;;;528.68;476.59;;;;;;;16.60;40.27;101160.27;;;;-60
2022/03/07 05:20:36;;;;;;;532.38;479.89;;;;;;;16.59;40.22;101160.02;;;;-60
2022/03/07 05:23:36;;;;;;;528.57;476.33;;;;;;;16.59;40.16;101163.25;;;;-58
2022/03/07 05:26:36;;;;;;;528.34;476.23;;;;;;;16.59;40.29;101156.05;;;;-56
2022/03/07 05:29:36;;;;;;;529.94;477.84;;;;;;;16.58;40.18;101161.30;;;;-55
2022/03/07 05:32:36;;;;;;;530.86;478.62;;;;;;;16.58;40.26;101160.45;;;;-56
2022/03/07 05:35:36;;;;;;;527.39;475.24;;;;;;;16.56;40.23;101163.50;;;;-55
2022/03/07 05:38:36;;;;;;;529.07;476.80;;;;;;;16.55;40.19;101169.93;;;;-60
2022/03/07 05:41:36;;;;;;;532.17;479.83;;;;;;;16.56;40.15;101173.78;;;;-52
2022/03/07 05:44:36;;;;;;;527.80;475.62;;;;;;;16.56;40.21;101178.80;;;;-57
2022/03/07 05:47:36;;;;;;;529.67;477.25;;;;;;;16.56;40.29;101181.88;;;;-52
2022/03/07 05:50:36;;;;;;;531.71;479.28;;;;;;;16.58;40.37;101180.72;;;;-52
2022/03/07 05:53:36;;;;;;;526.87;474.62;;;;;;;16.60;40.35;101182.36;;;;-52
2022/03/07 05:56:36;;;;;;;528.49;476.23;;;;;;;16.61;40.24;101178.45;;;;-52
2022/03/07 05:59:36;;;;;;;531.87;479.51;;;;;;;16.64;40.21;101182.16;;;;-53
2022/03/07 06:02:36;;;;;;;531.25;478.81;;;;;;;16.65;40.29;101178.97;;;;-53
2022/03/07 06:05:36;;;;;;;530.31;477.97;;;;;;;16.69;40.35;101181.02;;;;-53
2022/03/07 06:08:37;;;;;;;528.16;476.10;;;;;;;16.72;40.25;101177.70;;;;-52
2022/03/07 06:11:36;;;;;;;531.66;479.38;;;;;;;16.76;40.56;101177.67;;;;-52
2022/03/07 06:14:36;;;;;;;532.87;480.51;;;;;;;16.81;40.26;101181.09;;;;-59
2022/03/07 06:17:36;;;;;;;532.77;480.49;;;;;;;16.86;40.29;101185.12;;;;-55
2022/03/07 06:20:36;;;;;;;540.57;487.99;;;;;;;16.91;40.23;101184.10;;;;-56
2022/03/07 06:23:36;;;;;;;539.17;486.68;;;;;;;16.94;40.21;101188.09;;;;-56
2022/03/07 06:26:36;;;;;;;540.97;488.47;;;;;;;16.97;40.35;101191.00;;;;-55
2022/03/07 06:29:36;;;;;;;544.75;492.05;;;;;;;17.01;40.39;101186.02;;;;-56
2022/03/07 06:32:36;;;;;;;545.71;492.87;;;;;;;17.04;40.30;101192.03;;;;-55
2022/03/07 06:35:36;;;;;;;543.89;491.16;;;;;;;17.06;40.35;101192.66;;;;-55
2022/03/07 06:38:37;;;;;;;545.81;493.31;;;;;;;17.07;40.43;101194.37;;;;-56
2022/03/07 06:41:36;;;;;;;550.13;497.32;;;;;;;17.09;40.42;101198.55;;;;-59
2022/03/07 06:44:39;;;;;;;548.07;495.27;;;;;;;17.10;40.35;101201.19;;;;-58
2022/03/07 06:47:36;;;;;;;550.35;497.61;;;;;;;17.11;40.34;101201.84;;;;-58
2022/03/07 06:50:36;;;;;;;547.87;495.22;;;;;;;17.11;40.33;101208.09;;;;-57
2022/03/07 06:53:36;;;;;;;546.75;494.20;;;;;;;17.13;40.23;101206.59;;;;-59
2022/03/07 06:56:36;;;;;;;549.58;496.65;;;;;;;17.14;40.22;101213.13;;;;-55
2022/03/07 06:59:36;;;;;;;547.01;494.48;;;;;;;17.14;40.23;101219.00;;;;-52
2022/03/07 07:02:36;;;;;;;547.55;494.81;;;;;;;17.14;40.41;101214.09;;;;-52
2022/03/07 07:05:36;;;;;;;548.74;496.15;;;;;;;17.14;40.34;101209.81;;;;-57
2022/03/07 07:08:36;;;;;;;547.72;495.06;;;;;;;17.15;40.20;101212.00;;;;-61
2022/03/07 07:11:36;;;;;;;542.07;489.05;;;;;;;16.98;36.58;101218.24;;;;-58
2022/03/07 07:14:36;;;;;;;523.01;470.83;;;;;;;16.80;34.89;101217.03;;;;-56
2022/03/07 07:17:36;;;;;;;521.65;469.30;;;;;;;16.82;36.19;101208.62;;;;-60
2022/03/07 07:20:36;;;;;;;526.29;473.99;;;;;;;16.85;37.33;101214.05;;;;-60
2022/03/07 07:23:37;;;;;;;528.49;476.26;;;;;;;16.87;37.59;101217.42;;;;-60
2022/03/07 07:26:36;;;;;;;528.89;476.64;;;;;;;16.88;37.94;101225.56;;;;-62
2022/03/07 07:29:36;;;;;;;524.42;472.43;;;;;;;16.90;38.01;101220.93;;;;-52
2022/03/07 07:32:38;;;;;;;525.78;473.87;;;;;;;16.91;38.16;101223.28;;;;-59
2022/03/07 07:35:36;;;;;;;532.18;479.97;;;;;;;16.91;38.38;101224.70;;;;-58
2022/03/07 07:38:36;;;;;;;527.73;475.61;;;;;;;16.91;38.45;101234.30;;;;-58
2022/03/07 07:41:36;;;;;;;531.43;479.25;;;;;;;16.92;38.43;101228.59;;;;-58
2022/03/07 07:44:36;;;;;;;536.34;484.07;;;;;;;16.92;38.65;101232.89;;;;-58
2022/03/07 07:47:36;;;;;;;529.17;477.18;;;;;;;16.92;38.55;101230.70;;;;-58
2022/03/07 07:50:36;;;;;;;530.57;478.43;;;;;;;16.91;38.69;101239.28;;;;-63
2022/03/07 07:53:36;;;;;;;531.22;479.01;;;;;;;16.91;38.72;101239.60;;;;-62
2022/03/07 07:56:36;;;;;;;534.79;482.35;;;;;;;16.91;38.78;101243.05;;;;-61
2022/03/07 07:59:36;;;;;;;532.23;480.15;;;;;;;16.90;38.75;101257.85;;;;-62
2022/03/07 08:02:36;;;;;;;531.08;479.06;;;;;;;16.90;38.85;101249.02;;;;-61
2022/03/07 08:05:36;;;;;;;533.95;481.69;;;;;;;16.89;38.79;101245.89;;;;-60
2022/03/07 08:08:36;;;;;;;531.39;479.47;;;;;;;16.88;38.90;101254.31;;;;-61
2022/03/07 08:11:36;;;;;;;533.13;481.03;;;;;;;16.88;38.89;101253.48;;;;-60
2022/03/07 08:14:36;;;;;;;531.38;479.41;;;;;;;16.87;38.97;101253.29;;;;-62
2022/03/07 08:17:36;;;;;;;529.53;477.59;;;;;;;16.86;38.97;101255.38;;;;-58
2022/03/07 08:20:36;;;;;;;532.52;480.63;;;;;;;16.85;38.93;101252.70;;;;-58
2022/03/07 08:23:36;;;;;;;532.57;480.51;;;;;;;16.84;38.93;101260.91;;;;-59
2022/03/07 08:26:36;;;;;;;531.94;479.95;;;;;;;16.83;38.98;101258.22;;;;-58
2022/03/07 08:29:36;;;;;;;532.65;480.59;;;;;;;16.83;39.06;101252.59;;;;-62
2022/03/07 08:32:36;;;;;;;534.64;482.41;;;;;;;16.82;39.01;101258.18;;;;-60
2022/03/07 08:35:36;;;;;;;532.32;480.22;;;;;;;16.80;38.96;101255.49;;;;-63
2022/03/07 08:38:37;;;;;;;530.86;478.75;;;;;;;16.80;39.01;101266.73;;;;-53
2022/03/07 08:41:37;;;;;;;532.41;480.28;;;;;;;16.80;39.09;101270.30;;;;-60
2022/03/07 08:44:37;;;;;;;531.37;479.38;;;;;;;16.78;38.95;101267.57;;;;-59
2022/03/07 08:47:36;;;;;;;532.68;480.62;;;;;;;16.78;38.97;101274.29;;;;-55
2022/03/07 08:50:36;;;;;;;525.65;473.98;;;;;;;16.76;39.04;101273.42;;;;-53
2022/03/07 08:53:36;;;;;;;520.37;468.53;;;;;;;16.76;39.04;101271.55;;;;-55
2022/03/07 08:56:36;;;;;;;521.04;469.45;;;;;;;16.75;39.02;101267.48;;;;-55
2022/03/07 08:59:36;;;;;;;522.61;470.87;;;;;;;16.75;39.07;101272.02;;;;-55
2022/03/07 09:02:36;;;;;;;522.25;470.70;;;;;;;16.74;39.08;101271.82;;;;-57
2022/03/07 09:05:36;;;;;;;525.47;473.70;;;;;;;16.73;39.08;101282.89;;;;-52
2022/03/07 09:08:36;;;;;;;527.74;475.85;;;;;;;16.73;39.06;101284.18;;;;-52
2022/03/07 09:11:36;;;;;;;526.91;474.91;;;;;;;16.71;39.13;101282.42;;;;-56
2022/03/07 09:14:36;;;;;;;523.33;471.57;;;;;;;16.71;39.07;101287.44;;;;-60
2022/03/07 09:17:36;;;;;;;525.11;473.33;;;;;;;16.70;39.02;101283.50;;;;-60
2022/03/07 09:20:36;;;;;;;524.75;473.06;;;;;;;16.69;39.04;101288.59;;;;-61
2022/03/07 09:23:37;;;;;;;527.02;475.27;;;;;;;16.69;39.08;101288.34;;;;-61
2022/03/07 09:26:36;;;;;;;523.73;471.72;;;;;;;16.69;40.00;101293.53;;;;-64
2022/03/07 09:29:36;;;;;;;526.37;474.27;;;;;;;16.73;39.83;101297.38;;;;-54
2022/03/07 09:32:36;;;;;;;527.85;475.97;;;;;;;16.77;39.88;101302.03;;;;-52
2022/03/07 09:35:36;;;;;;;532.33;480.13;;;;;;;16.82;40.45;101302.13;;;;-53
2022/03/07 09:38:37;;;;;;;536.05;483.61;;;;;;;16.89;40.31;101302.90;;;;-60
2022/03/07 09:41:36;;;;;;;536.51;484.53;;;;;;;16.96;40.44;101307.98;;;;-63
2022/03/07 09:44:36;;;;;;;539.00;487.13;;;;;;;17.04;40.42;101298.03;;;;-62
2022/03/07 09:47:36;;;;;;;548.53;496.28;;;;;;;17.13;40.51;101310.75;;;;-51
2022/03/07 09:50:36;;;;;;;551.62;498.85;;;;;;;17.20;40.53;101305.52;;;;-51
2022/03/07 09:53:36;;;;;;;553.33;500.88;;;;;;;17.27;40.57;101302.59;;;;-52
2022/03/07 09:56:36;;;;;;;554.83;502.32;;;;;;;17.34;40.51;101303.66;;;;-51
2022/03/07 09:59:36;;;;;;;560.72;507.75;;;;;;;17.39;40.68;101305.45;;;;-52
2022/03/07 10:02:36;;;;;;;561.19;508.46;;;;;;;17.46;40.75;101299.23;;;;-51
2022/03/07 10:05:36;;;;;;;563.18;510.02;;;;;;;17.52;40.62;101303.86;;;;-58
2022/03/07 10:08:36;;;;;;;569.16;515.69;;;;;;;17.57;40.38;101308.20;;;;-51
2022/03/07 10:11:36;;;;;;;570.21;516.97;;;;;;;17.58;40.30;101301.61;;;;-57
2022/03/07 10:14:41;;;;;;;574.66;521.00;;;;;;;17.61;40.32;101299.88;;;;-51
2022/03/07 10:17:37;;;;;;;570.45;517.11;;;;;;;17.63;40.30;101304.89;;;;-56
2022/03/07 10:20:36;;;;;;;569.03;515.67;;;;;;;17.66;40.23;101304.05;;;;-53
2022/03/07 10:23:36;;;;;;;573.65;520.12;;;;;;;17.68;40.13;101287.90;;;;-54
2022/03/07 10:26:36;;;;;;;576.12;522.49;;;;;;;17.71;40.13;101296.51;;;;-54
2022/03/07 10:29:36;;;;;;;575.26;521.56;;;;;;;17.75;40.19;101300.52;;;;-55
2022/03/07 10:32:36;;;;;;;577.36;523.44;;;;;;;17.76;38.72;101296.14;;;;-58
2022/03/07 10:35:36;;;;;;;577.66;523.77;;;;;;;17.77;38.72;101301.14;;;;-58
2022/03/07 10:38:36;;;;;;;573.83;520.14;;;;;;;17.79;38.29;101298.03;;;;-52
2022/03/07 10:41:36;;;;;;;575.31;521.27;;;;;;;17.85;38.98;101294.17;;;;-58
2022/03/07 10:44:37;;;;;;;577.77;523.92;;;;;;;17.91;39.49;101296.77;;;;-52
2022/03/07 10:47:36;;;;;;;581.37;527.37;;;;;;;17.98;39.77;101301.23;;;;-52
2022/03/07 10:50:36;;;;;;;587.58;533.10;;;;;;;18.03;39.44;101300.86;;;;-47
2022/03/07 10:53:36;;;;;;;580.87;526.15;;;;;;;18.03;39.38;101297.05;;;;-47
2022/03/07 10:56:36;;;;;;;584.14;529.87;;;;;;;18.02;39.50;101300.12;;;;-54
2022/03/07 10:59:36;;;;;;;584.38;530.33;;;;;;;18.03;39.50;101299.72;;;;-54
2022/03/07 11:02:36;;;;;;;582.65;528.52;;;;;;;18.04;39.51;101297.16;;;;-54
2022/03/07 11:05:36;;;;;;;581.40;527.32;;;;;;;18.06;39.49;101291.37;;;;-52
2022/03/07 11:08:36;;;;;;;584.08;529.87;;;;;;;18.10;39.29;101291.16;;;;-54
2022/03/07 11:11:36;;;;;;;587.72;533.39;;;;;;;18.14;39.37;101298.56;;;;-53
2022/03/07 11:14:36;;;;;;;588.83;534.59;;;;;;;18.16;39.50;101296.75;;;;-52
2022/03/07 11:17:36;;;;;;;595.14;540.58;;;;;;;18.20;39.57;101293.53;;;;-51
2022/03/07 11:20:36;;;;;;;589.95;535.62;;;;;;;18.23;39.50;101293.19;;;;-55
2022/03/07 11:23:36;;;;;;;591.51;537.05;;;;;;;18.27;39.61;101286.79;;;;-55
2022/03/07 11:26:36;;;;;;;598.05;543.15;;;;;;;18.30;39.75;101278.09;;;;-51
2022/03/07 11:29:36;;;;;;;596.49;541.78;;;;;;;18.31;39.57;101274.64;;;;-55
2022/03/07 11:32:36;;;;;;;601.77;546.74;;;;;;;18.29;39.60;101269.31;;;;-56
2022/03/07 11:35:36;;;;;;;595.43;540.65;;;;;;;18.28;39.35;101268.58;;;;-55
2022/03/07 11:38:36;;;;;;;594.81;540.22;;;;;;;18.28;39.50;101264.08;;;;-52
2022/03/07 11:41:36;;;;;;;595.02;540.41;;;;;;;18.27;39.48;101260.98;;;;-53
2022/03/07 11:44:36;;;;;;;594.69;540.05;;;;;;;18.29;39.44;101259.98;;;;-56
2022/03/07 11:47:36;;;;;;;596.75;541.93;;;;;;;18.28;39.32;101251.70;;;;-56
2022/03/07 11:50:36;;;;;;;592.49;537.97;;;;;;;18.29;39.42;101255.69;;;;-56
2022/03/07 11:53:36;;;;;;;593.52;538.92;;;;;;;18.30;39.29;101251.95;;;;-56
2022/03/07 11:56:36;;;;;;;596.39;541.52;;;;;;;18.29;39.49;101248.62;;;;-55
2022/03/07 11:59:36;;;;;;;597.17;542.22;;;;;;;18.30;39.27;101244.41;;;;-55
2022/03/07 12:02:36;;;;;;;594.80;540.15;;;;;;;18.31;39.32;101241.20;;;;-57
2022/03/07 12:05:36;;;;;;;598.77;543.99;;;;;;;18.31;39.22;101235.53;;;;-53
2022/03/07 12:08:36;;;;;;;596.75;541.97;;;;;;;18.32;39.32;101235.45;;;;-51
2022/03/07 12:11:36;;;;;;;597.47;542.74;;;;;;;18.32;39.33;101229.13;;;;-50
2022/03/07 12:14:36;;;;;;;599.39;544.56;;;;;;;18.32;39.36;101224.70;;;;-51
2022/03/07 12:17:36;;;;;;;601.89;546.85;;;;;;;18.32;39.33;101222.75;;;;-55
2022/03/07 12:20:36;;;;;;;601.41;546.46;;;;;;;18.33;39.36;101216.43;;;;-59
2022/03/07 12:23:37;;;;;;;600.71;545.95;;;;;;;18.34;39.27;101211.44;;;;-55
2022/03/07 12:26:36;;;;;;;604.97;550.04;;;;;;;18.36;39.13;101213.76;;;;-55
2022/03/07 12:29:36;;;;;;;605.48;550.32;;;;;;;18.38;39.30;101209.95;;;;-56
2022/03/07 12:32:36;;;;;;;605.44;550.41;;;;;;;18.40;39.14;101210.08;;;;-55
2022/03/07 12:35:36;;;;;;;600.50;545.69;;;;;;;18.41;39.28;101211.22;;;;-55
2022/03/07 12:38:36;;;;;;;607.57;552.32;;;;;;;18.43;39.05;101203.59;;;;-55
2022/03/07 12:41:36;;;;;;;606.53;551.48;;;;;;;18.46;39.01;101187.73;;;;-56
2022/03/07 12:44:36;;;;;;;610.19;554.93;;;;;;;18.47;39.10;101187.29;;;;-55
2022/03/07 12:47:36;;;;;;;610.11;554.87;;;;;;;18.49;39.01;101181.49;;;;-55
2022/03/07 12:50:36;;;;;;;612.55;557.33;;;;;;;18.49;39.00;101173.78;;;;-55
2022/03/07 12:53:36;;;;;;;613.51;558.19;;;;;;;18.52;39.08;101172.28;;;;-55
2022/03/07 12:56:36;;;;;;;610.71;555.50;;;;;;;18.54;38.98;101163.89;;;;-56
2022/03/07 12:59:36;;;;;;;611.95;556.71;;;;;;;18.57;39.08;101161.83;;;;-57
2022/03/07 13:02:36;;;;;;;615.97;560.41;;;;;;;18.60;38.99;101155.58;;;;-58
2022/03/07 13:05:36;;;;;;;616.55;561.02;;;;;;;18.62;38.92;101151.32;;;;-59
2022/03/07 13:08:36;;;;;;;609.46;554.35;;;;;;;18.63;38.94;101143.30;;;;-59
2022/03/07 13:11:36;;;;;;;614.44;559.29;;;;;;;18.64;38.91;101144.30;;;;-53
2022/03/07 13:14:36;;;;;;;613.06;557.83;;;;;;;18.65;38.97;101147.30;;;;-51
2022/03/07 13:17:36;;;;;;;616.59;560.95;;;;;;;18.68;38.50;101148.13;;;;-51
2022/03/07 13:20:36;;;;;;;617.61;562.37;;;;;;;18.67;38.82;101144.27;;;;-55
2022/03/07 13:23:36;;;;;;;620.13;564.49;;;;;;;18.65;38.05;101140.41;;;;-55
2022/03/07 13:26:36;;;;;;;614.83;559.45;;;;;;;18.63;37.39;101139.72;;;;-54
2022/03/07 13:29:36;;;;;;;616.25;560.19;;;;;;;18.65;37.91;101142.44;;;;-56
2022/03/07 13:32:38;;;;;;;613.43;557.88;;;;;;;18.68;38.14;101146.25;;;;-55
2022/03/07 13:35:36;;;;;;;612.45;557.08;;;;;;;18.72;38.10;101133.75;;;;-56
2022/03/07 13:38:36;;;;;;;611.71;556.12;;;;;;;18.73;38.41;101133.34;;;;-53
2022/03/07 13:41:36;;;;;;;617.41;561.91;;;;;;;18.73;38.53;101129.38;;;;-54
2022/03/07 13:44:36;;;;;;;613.67;558.42;;;;;;;18.76;38.50;101127.02;;;;-54
2022/03/07 13:47:36;;;;;;;613.56;558.17;;;;;;;18.77;38.59;101123.53;;;;-53
2022/03/07 13:50:36;;;;;;;616.17;560.84;;;;;;;18.79;38.37;101121.24;;;;-54
2022/03/07 13:53:38;;;;;;;618.55;562.91;;;;;;;18.80;38.52;101108.66;;;;-53
2022/03/07 13:56:36;;;;;;;624.80;569.11;;;;;;;18.79;38.52;101109.06;;;;-53
2022/03/07 13:59:36;;;;;;;615.87;560.45;;;;;;;18.80;38.72;101107.97;;;;-55
2022/03/07 14:02:36;;;;;;;618.71;563.73;;;;;;;18.79;38.59;101104.84;;;;-52
2022/03/07 14:05:36;;;;;;;615.22;559.85;;;;;;;18.79;38.62;101105.25;;;;-53
2022/03/07 14:08:39;;;;;;;615.99;560.79;;;;;;;18.83;38.74;101102.89;;;;-57
2022/03/07 14:11:36;;;;;;;616.51;561.47;;;;;;;18.86;39.02;101109.59;;;;-52
2022/03/07 14:14:36;;;;;;;621.83;566.14;;;;;;;18.90;39.30;101104.96;;;;-52
2022/03/07 14:17:36;;;;;;;626.52;570.79;;;;;;;18.94;39.41;101096.52;;;;-53
2022/03/07 14:20:36;;;;;;;626.72;571.35;;;;;;;18.96;39.39;101100.69;;;;-54
2022/03/07 14:23:36;;;;;;;625.07;569.97;;;;;;;18.90;39.16;101098.79;;;;-52
2022/03/07 14:26:36;;;;;;;622.53;567.18;;;;;;;18.91;38.55;101102.31;;;;-59
2022/03/07 14:29:38;;;;;;;617.65;563.34;;;;;;;18.93;38.65;101100.33;;;;-55
2022/03/07 14:32:36;;;;;;;624.89;570.15;;;;;;;18.96;38.78;101095.66;;;;-54
2022/03/07 14:35:36;;;;;;;626.94;571.90;;;;;;;18.98;39.02;101092.53;;;;-52
2022/03/07 14:38:36;;;;;;;629.79;574.65;;;;;;;19.04;39.00;101093.12;;;;-54
2022/03/07 14:41:36;;;;;;;629.61;574.64;;;;;;;19.05;39.01;101091.99;;;;-55
2022/03/07 14:44:36;;;;;;;628.69;573.74;;;;;;;19.07;39.20;101083.50;;;;-52
2022/03/07 14:47:36;;;;;;;636.37;580.57;;;;;;;19.08;39.19;101083.12;;;;-54
2022/03/07 14:50:36;;;;;;;636.88;580.95;;;;;;;19.09;39.37;101082.80;;;;-54
2022/03/07 14:53:36;;;;;;;635.81;579.99;;;;;;;19.10;39.24;101079.75;;;;-50
2022/03/07 14:56:36;;;;;;;629.60;574.56;;;;;;;19.13;39.35;101084.75;;;;-51
2022/03/07 14:59:36;;;;;;;633.87;578.05;;;;;;;19.15;39.43;101087.22;;;;-50
2022/03/07 15:02:37;;;;;;;639.89;583.28;;;;;;;19.14;39.34;101091.93;;;;-51
2022/03/07 15:05:36;;;;;;;635.28;579.39;;;;;;;19.16;39.44;101088.72;;;;-49
2022/03/07 15:08:36;;;;;;;632.60;576.56;;;;;;;19.20;39.52;101089.77;;;;-51
2022/03/07 15:11:38;;;;;;;634.88;579.05;;;;;;;19.21;39.52;101091.48;;;;-52
2022/03/07 15:14:36;;;;;;;641.60;585.13;;;;;;;19.23;39.57;101093.45;;;;-51
2022/03/07 15:17:36;;;;;;;639.67;583.61;;;;;;;19.24;39.56;101094.23;;;;-54
2022/03/07 15:20:36;;;;;;;642.01;585.67;;;;;;;19.28;39.60;101088.25;;;;-55
2022/03/07 15:23:36;;;;;;;639.30;582.85;;;;;;;19.30;39.45;101083.61;;;;-52
2022/03/07 15:26:36;;;;;;;641.23;584.91;;;;;;;19.32;39.47;101092.88;;;;-47
2022/03/07 15:29:36;;;;;;;639.60;583.31;;;;;;;19.34;39.40;101098.63;;;;-48
2022/03/07 15:32:46;;;;;;;604.13;552.11;;;;;;;19.35;39.49;101097.81;;;;-48
2022/03/07 15:35:36;;;;;;;642.52;587.27;;;;;;;19.35;39.60;101093.75;;;;-47
2022/03/07 15:38:36;;;;;;;642.93;586.83;;;;;;;19.35;39.41;101098.22;;;;-54
2022/03/07 15:41:36;;;;;;;639.85;584.49;;;;;;;19.36;39.67;101101.97;;;;-53
2022/03/07 15:44:36;;;;;;;638.69;583.35;;;;;;;19.36;39.55;101094.36;;;;-53
2022/03/07 15:47:36;;;;;;;643.76;587.87;;;;;;;19.37;39.50;101102.00;;;;-54
2022/03/07 15:50:36;;;;;;;641.75;586.13;;;;;;;19.37;39.55;101104.68;;;;-53